Time;durP1;ratioP1;P1;durP2;ratioP2;P2;SDS_P1;SDS_P2;PMS_P1;PMS_P2;Temp;Humidity;BMP_temperature;BMP_pressure;BME280_temperature;BME280_humidity;BME280_pressure;Samples;Min_cycle;Max_cycle;Signal;HPM_P1;HPM_P2
2022/08/20 05:03:46;;;;;;;3.88;2.60;;;19.70;99.90;;;;;;4975434;23;20055;-75
2022/08/20 05:06:12;;;;;;;3.47;2.58;;;19.70;99.90;;;;;;4961945;29;20039;-74
2022/08/20 05:08:39;;;;;;;4.32;2.58;;;19.80;99.90;;;;;;4962204;29;20019;-74
2022/08/20 05:11:08;;;;;;;4.90;3.10;;;19.80;99.90;;;;;;4962498;29;20027;-73
2022/08/20 05:13:34;;;;;;;7.28;3.58;;;19.80;99.90;;;;;;4963353;29;20098;-74
2022/08/20 05:16:01;;;;;;;4.20;2.78;;;19.70;99.90;;;;;;4963332;29;20039;-77
2022/08/20 05:18:31;;;;;;;5.22;3.13;;;19.70;99.90;;;;;;4963675;29;20019;-74
2022/08/20 05:21:02;;;;;;;4.88;2.80;;;19.60;99.90;;;;;;4963450;29;20022;-75
2022/08/20 05:23:28;;;;;;;4.53;3.30;;;19.60;99.90;;;;;;4963346;29;20047;-74
2022/08/20 05:25:56;;;;;;;6.70;3.67;;;19.60;99.90;;;;;;4963633;29;20050;-74
2022/08/20 05:28:25;;;;;;;5.70;3.33;;;19.50;99.90;;;;;;4963370;29;20035;-74
2022/08/20 05:30:52;;;;;;;5.72;3.38;;;19.40;99.90;;;;;;4963375;29;20046;-74
2022/08/20 05:33:20;;;;;;;6.95;3.22;;;19.40;99.90;;;;;;4962931;29;20035;-74
2022/08/20 05:35:48;;;;;;;5.68;3.80;;;19.30;99.90;;;;;;4965710;28;20332;-73
2022/08/20 05:38:17;;;;;;;6.20;3.67;;;19.20;99.90;;;;;;4966750;28;20036;-76
2022/08/20 05:40:44;;;;;;;4.85;3.47;;;19.10;99.90;;;;;;4967306;29;20027;-74
2022/08/20 05:43:10;;;;;;;6.63;3.22;;;19.10;99.90;;;;;;4966255;29;20301;-74
2022/08/20 05:45:37;;;;;;;4.65;3.70;;;19.10;99.90;;;;;;4958260;29;20071;-74
2022/08/20 05:48:10;;;;;;;9.13;3.70;;;19.10;99.90;;;;;;4947067;29;20321;-73
2022/08/20 05:50:41;;;;;;;5.25;3.53;;;19.10;99.90;;;;;;4947605;29;20042;-75
2022/08/20 05:53:07;;;;;;;4.85;3.10;;;19.10;99.90;;;;;;4946891;29;20266;-75
2022/08/20 05:55:36;;;;;;;5.32;3.33;;;19.20;99.90;;;;;;4947634;29;20216;-74
2022/08/20 05:58:04;;;;;;;5.40;3.83;;;19.30;99.90;;;;;;4947730;29;20035;-74
2022/08/20 06:00:32;;;;;;;5.43;3.25;;;19.30;99.90;;;;;;4947250;29;20043;-74
2022/08/20 06:05:43;;;;;;;4.95;3.10;;;19.50;99.90;;;;;;4928285;29;20039;-74
2022/08/20 06:08:10;;;;;;;4.40;3.13;;;19.70;99.90;;;;;;4927899;29;20067;-74
2022/08/20 06:10:37;;;;;;;8.10;4.18;;;20.00;99.90;;;;;;4928128;29;20044;-74
2022/08/20 06:13:03;;;;;;;8.48;4.10;;;20.00;99.90;;;;;;4927844;29;20083;-74
2022/08/20 06:15:30;;;;;;;8.90;4.32;;;20.10;99.90;;;;;;4927959;29;20043;-75
2022/08/20 06:17:56;;;;;;;10.63;4.15;;;20.30;99.90;;;;;;4927833;29;20036;-73
2022/08/20 06:20:22;;;;;;;5.97;3.53;;;20.40;99.90;;;;;;4936848;29;20034;-75
2022/08/20 06:22:48;;;;;;;6.40;3.92;;;20.50;99.90;;;;;;4946705;29;20040;-75
2022/08/20 06:25:14;;;;;;;5.95;3.35;;;20.60;99.90;;;;;;4946198;29;20046;-74
2022/08/20 06:27:41;;;;;;;5.78;3.15;;;20.60;99.90;;;;;;4946917;29;20038;-75
2022/08/20 06:30:10;;;;;;;6.83;3.20;;;20.70;99.90;;;;;;4929602;29;20225;-75
2022/08/20 06:32:36;;;;;;;4.63;3.25;;;20.70;99.90;;;;;;4929898;29;20206;-74
2022/08/20 06:35:05;;;;;;;5.70;3.05;;;20.70;99.90;;;;;;4946465;29;20026;-75
2022/08/20 06:37:35;;;;;;;5.07;3.40;;;20.70;99.90;;;;;;4946585;29;20077;-74
2022/08/20 06:40:08;;;;;;;5.47;3.20;;;20.70;99.90;;;;;;4946859;29;20186;-74
2022/08/20 06:42:34;;;;;;;6.45;3.60;;;20.80;99.90;;;;;;4946996;29;20426;-75
2022/08/20 06:45:03;;;;;;;6.78;3.83;;;20.80;99.90;;;;;;4946224;29;20040;-75
2022/08/20 06:47:30;;;;;;;4.22;3.17;;;20.90;99.90;;;;;;4944839;29;20035;-73
2022/08/20 06:49:56;;;;;;;4.78;3.50;;;21.10;99.90;;;;;;4946369;29;20218;-74
2022/08/20 06:52:22;;;;;;;5.93;3.30;;;21.20;99.90;;;;;;4946088;29;20040;-75
2022/08/20 06:54:48;;;;;;;8.88;3.20;;;21.20;99.90;;;;;;4946388;29;20058;-73
2022/08/20 06:57:14;;;;;;;5.15;3.15;;;21.40;99.90;;;;;;4944007;29;20376;-75
2022/08/20 06:59:40;;;;;;;3.83;2.50;;;21.40;99.90;;;;;;4945879;29;20293;-74
2022/08/20 07:02:06;;;;;;;4.78;3.05;;;21.40;99.90;;;;;;4945412;29;20217;-77
2022/08/20 07:04:33;;;;;;;3.20;2.45;;;21.50;99.90;;;;;;4946312;29;20035;-75
2022/08/20 07:07:00;;;;;;;4.05;2.55;;;21.50;99.90;;;;;;4945904;29;20115;-74
2022/08/20 07:09:27;;;;;;;4.55;2.70;;;21.60;99.90;;;;;;4945473;29;20186;-76
2022/08/20 07:11:53;;;;;;;4.55;2.75;;;21.60;99.90;;;;;;4946264;29;20035;-75
2022/08/20 07:14:19;;;;;;;5.45;3.22;;;21.60;99.90;;;;;;4945512;29;20309;-75
2022/08/20 07:16:46;;;;;;;4.30;3.08;;;21.50;99.90;;;;;;4945787;29;20058;-74
2022/08/20 07:19:12;;;;;;;4.70;3.20;;;21.40;99.90;;;;;;4945656;29;20038;-73
2022/08/20 07:21:38;;;;;;;5.28;3.33;;;21.30;99.90;;;;;;4946045;29;20028;-72
2022/08/20 07:24:05;;;;;;;4.70;2.80;;;21.30;99.90;;;;;;4944737;29;20072;-72
2022/08/20 07:26:31;;;;;;;5.45;2.70;;;21.30;99.90;;;;;;4945251;29;20262;-74
2022/08/20 07:28:56;;;;;;;5.95;3.28;;;21.40;99.90;;;;;;4929208;29;20046;-74
2022/08/20 07:34:07;;;;;;;5.47;3.28;;;21.40;99.90;;;;;;4945738;29;20051;-74
2022/08/20 07:36:42;;;;;;;6.13;2.90;;;21.50;99.90;;;;;;4927916;29;20329;-75
2022/08/20 07:39:08;;;;;;;5.15;3.00;;;21.70;99.90;;;;;;4945421;29;20027;-72
2022/08/20 07:41:34;;;;;;;5.30;2.70;;;21.90;99.90;;;;;;4945430;29;20019;-72
2022/08/20 07:44:00;;;;;;;6.68;3.30;;;22.00;99.90;;;;;;4945394;29;20246;-71
2022/08/20 07:46:28;;;;;;;4.85;2.78;;;22.20;99.90;;;;;;4944861;29;20031;-71
2022/08/20 07:48:54;;;;;;;4.35;2.80;;;22.30;99.90;;;;;;4945098;29;20328;-72
2022/08/20 07:51:22;;;;;;;4.82;3.00;;;22.50;99.90;;;;;;4945186;29;20046;-71
2022/08/20 07:53:49;;;;;;;4.95;2.60;;;22.60;99.90;;;;;;4945486;29;20047;-71
2022/08/20 07:56:20;;;;;;;5.43;2.90;;;22.80;99.90;;;;;;4944904;29;20020;-71
2022/08/20 07:58:49;;;;;;;3.15;2.45;;;22.90;99.90;;;;;;4944589;29;20027;-71
2022/08/20 08:01:17;;;;;;;4.28;2.60;;;23.10;99.90;;;;;;4944425;29;20038;-69
2022/08/20 08:03:42;;;;;;;4.40;2.25;;;23.40;99.90;;;;;;4944722;29;20051;-73
2022/08/20 08:06:08;;;;;;;3.75;2.50;;;23.70;99.90;;;;;;4938794;29;20119;-70
2022/08/20 08:08:35;;;;;;;4.47;2.25;;;23.90;99.90;;;;;;4937960;29;20051;-69
2022/08/20 08:11:03;;;;;;;4.28;2.53;;;24.10;99.90;;;;;;4929731;29;20176;-78
2022/08/20 08:13:32;;;;;;;5.18;2.38;;;24.50;97.90;;;;;;4940582;29;20051;-70
2022/08/20 08:16:00;;;;;;;3.35;2.00;;;24.70;96.80;;;;;;4937952;29;20036;-71
2022/08/20 08:18:35;;;;;;;2.83;1.70;;;24.80;96.10;;;;;;4938278;29;20024;-69
2022/08/20 08:21:01;;;;;;;4.10;2.03;;;24.90;95.40;;;;;;4945331;29;20038;-71
2022/08/20 08:23:28;;;;;;;3.85;2.10;;;25.20;94.60;;;;;;4936762;29;20031;-78
2022/08/20 08:25:54;;;;;;;4.50;2.00;;;25.50;93.80;;;;;;4932263;29;20082;-71
2022/08/20 08:28:21;;;;;;;3.88;2.33;;;25.40;93.30;;;;;;4938966;29;20020;-72
2022/08/20 08:30:48;;;;;;;3.88;1.95;;;25.10;93.60;;;;;;4932663;29;20218;-72
2022/08/20 08:33:32;;;;;;;4.45;1.98;;;25.30;93.50;;;;;;4943385;29;20305;-72
2022/08/20 08:36:05;;;;;;;5.32;2.13;;;25.50;93.30;;;;;;4944520;29;20038;-74
2022/08/20 08:38:36;;;;;;;3.15;2.33;;;25.50;92.50;;;;;;4927021;29;20036;-73
2022/08/20 08:41:17;;;;;;;3.42;1.88;;;25.50;92.20;;;;;;4942204;29;20036;-71
2022/08/20 08:43:45;;;;;;;3.05;1.90;;;25.60;91.90;;;;;;4937387;29;20214;-73
2022/08/20 08:46:16;;;;;;;4.47;2.28;;;25.60;91.60;;;;;;4940809;29;20316;-71
2022/08/20 08:48:45;;;;;;;4.82;2.15;;;25.90;91.50;;;;;;4936299;29;20028;-71
2022/08/20 08:51:19;;;;;;;4.38;2.42;;;26.00;91.00;;;;;;4931740;29;20036;-71
2022/08/20 08:53:52;;;;;;;3.35;2.33;;;26.00;90.90;;;;;;4925741;29;20042;-71
2022/08/20 08:56:18;;;;;;;3.63;2.20;;;25.80;91.20;;;;;;4943718;29;20051;-71
2022/08/20 08:58:44;;;;;;;3.10;2.03;;;25.60;91.20;;;;;;4944980;29;20036;-71
2022/08/20 09:01:19;;;;;;;2.72;1.90;;;25.50;91.70;;;;;;4943992;29;20258;-72
2022/08/20 09:03:49;;;;;;;3.05;1.92;;;25.30;90.90;;;;;;4942145;29;20079;-72
2022/08/20 09:06:19;;;;;;;4.68;1.98;;;25.30;90.80;;;;;;4942506;29;20044;-72
2022/08/20 09:08:52;;;;;;;3.30;1.55;;;25.30;89.90;;;;;;4943624;29;20309;-72
2022/08/20 09:11:20;;;;;;;3.97;2.20;;;25.20;90.20;;;;;;4946629;29;20047;-72
2022/08/20 09:13:46;;;;;;;3.03;1.80;;;25.20;90.50;;;;;;4945903;29;20040;-71
2022/08/20 09:16:12;;;;;;;2.63;1.95;;;25.30;90.40;;;;;;4947375;29;20098;-71
2022/08/20 09:18:38;;;;;;;3.50;2.20;;;25.50;89.10;;;;;;4947157;29;20250;-72
2022/08/20 09:21:05;;;;;;;3.03;2.00;;;25.60;89.50;;;;;;4947666;29;20082;-71
2022/08/20 09:23:31;;;;;;;3.42;2.08;;;25.60;89.50;;;;;;4947532;29;20091;-71
2022/08/20 09:25:57;;;;;;;4.75;2.50;;;25.60;88.50;;;;;;4947538;29;20132;-73
2022/08/20 09:28:22;;;;;;;2.67;2.00;;;25.50;89.20;;;;;;4947342;29;20201;-71
2022/08/20 09:30:48;;;;;;;2.40;1.90;;;25.30;90.00;;;;;;4946844;29;20035;-71
2022/08/20 09:33:14;;;;;;;2.63;1.73;;;25.30;89.40;;;;;;4946701;29;20355;-72
2022/08/20 09:35:41;;;;;;;2.13;1.10;;;25.40;88.20;;;;;;4940206;29;20091;-72
2022/08/20 09:38:07;;;;;;;2.25;1.17;;;25.30;87.30;;;;;;4946623;29;20031;-71
2022/08/20 09:40:33;;;;;;;2.65;0.93;;;25.40;88.30;;;;;;4946069;29;20023;-72
2022/08/20 09:42:59;;;;;;;2.80;1.20;;;25.60;86.50;;;;;;4946664;29;20356;-71
2022/08/20 09:45:25;;;;;;;3.10;1.17;;;25.70;85.30;;;;;;4946860;29;20035;-72
2022/08/20 09:47:51;;;;;;;1.80;0.80;;;25.80;85.70;;;;;;4947587;29;20040;-72
2022/08/20 09:50:17;;;;;;;1.95;1.05;;;25.90;84.70;;;;;;4944905;29;20110;-72
2022/08/20 09:52:46;;;;;;;4.18;1.20;;;25.90;84.70;;;;;;4944515;29;20036;-72
2022/08/20 09:55:35;;;;;;;2.20;0.90;;;25.90;85.30;;;;;;4945873;29;20270;-72
2022/08/20 09:58:14;;;;;;;3.38;1.33;;;25.90;85.50;;;;;;4945839;29;20043;-72
2022/08/20 10:00:40;;;;;;;2.25;1.10;;;26.10;84.80;;;;;;4945948;29;20106;-72
2022/08/20 10:03:05;;;;;;;2.70;1.25;;;26.20;84.80;;;;;;4945708;29;20241;-72
2022/08/20 10:05:31;;;;;;;1.83;0.88;;;26.20;84.80;;;;;;4945572;29;20035;-71
2022/08/20 10:07:57;;;;;;;2.55;1.00;;;26.30;85.00;;;;;;4945569;29;20027;-72
2022/08/20 10:10:23;;;;;;;1.58;0.77;;;26.30;84.60;;;;;;4944288;29;20067;-73
2022/08/20 10:12:49;;;;;;;1.73;0.73;;;26.30;84.40;;;;;;4946685;29;20058;-71
2022/08/20 10:15:15;;;;;;;1.33;0.50;;;26.20;83.10;;;;;;4945628;29;20040;-69
2022/08/20 10:17:42;;;;;;;1.35;0.50;;;25.80;83.30;;;;;;4945160;29;20365;-70
2022/08/20 10:20:11;;;;;;;1.50;0.60;;;25.80;84.10;;;;;;4944755;29;20099;-70
2022/08/20 10:22:37;;;;;;;1.67;0.88;;;25.70;84.60;;;;;;4941755;29;20054;-71
2022/08/20 10:25:04;;;;;;;1.70;0.70;;;26.00;84.70;;;;;;4945349;29;20222;-72
2022/08/20 10:27:30;;;;;;;0.70;0.40;;;26.20;84.30;;;;;;4944718;29;20313;-70
2022/08/20 10:29:56;;;;;;;0.80;0.22;;;26.60;81.90;;;;;;4944472;29;20078;-72
2022/08/20 10:32:22;;;;;;;0.68;0.32;;;26.50;82.20;;;;;;4927095;29;20066;-71
2022/08/20 10:34:48;;;;;;;0.47;0.20;;;26.60;81.70;;;;;;4942763;29;20024;-72
2022/08/20 10:37:17;;;;;;;1.35;0.20;;;26.60;81.50;;;;;;4936313;29;20075;-69
2022/08/20 10:39:44;;;;;;;2.25;0.20;;;26.40;81.40;;;;;;4944732;29;20094;-72
2022/08/20 10:42:10;;;;;;;0.45;0.20;;;26.10;82.10;;;;;;4928263;29;20118;-73
2022/08/20 10:44:36;;;;;;;0.70;0.20;;;25.90;83.00;;;;;;4944510;29;20039;-72
2022/08/20 10:47:17;;;;;;;1.13;0.20;;;25.70;84.50;;;;;;4927770;29;20042;-74
2022/08/20 10:50:01;;;;;;;0.90;0.20;;;25.70;85.20;;;;;;4927699;29;20063;-73
2022/08/20 10:52:27;;;;;;;0.70;0.20;;;25.90;84.40;;;;;;4944700;29;20247;-71
2022/08/20 10:54:56;;;;;;;0.90;0.20;;;26.10;84.00;;;;;;4928357;29;20215;-71
2022/08/20 10:57:27;;;;;;;1.23;0.40;;;26.20;82.80;;;;;;4944588;29;20032;-69
2022/08/20 10:59:56;;;;;;;1.20;0.38;;;26.20;83.20;;;;;;4945078;29;20040;-72
2022/08/20 11:02:26;;;;;;;1.13;0.60;;;25.90;83.00;;;;;;4944533;29;20047;-71
2022/08/20 11:04:52;;;;;;;3.05;0.93;;;25.90;83.90;;;;;;4942965;29;20071;-72
2022/08/20 11:07:25;;;;;;;0.80;0.30;;;25.90;84.10;;;;;;4944696;29;20034;-70
2022/08/20 11:09:51;;;;;;;2.60;0.40;;;25.70;84.00;;;;;;4927927;29;20020;-71
2022/08/20 11:12:24;;;;;;;1.20;0.43;;;25.60;83.90;;;;;;4944744;29;20217;-71
2022/08/20 11:14:51;;;;;;;0.90;0.25;;;25.30;83.20;;;;;;4942943;29;20023;-72
2022/08/20 11:17:23;;;;;;;0.47;0.17;;;25.10;83.40;;;;;;4927619;29;20019;-71
2022/08/20 11:19:50;;;;;;;0.88;0.40;;;25.20;83.50;;;;;;4927608;29;20020;-71
2022/08/20 11:22:16;;;;;;;1.55;0.65;;;25.50;84.10;;;;;;4928019;29;20244;-70
2022/08/20 11:24:42;;;;;;;1.48;0.32;;;25.80;82.40;;;;;;4943816;29;20050;-71
2022/08/20 11:27:09;;;;;;;0.90;0.20;;;25.80;82.10;;;;;;4944446;29;20046;-71
2022/08/20 11:29:36;;;;;;;0.82;0.38;;;25.90;81.80;;;;;;4943916;29;20409;-72
2022/08/20 11:32:04;;;;;;;1.35;0.40;;;26.00;81.80;;;;;;4927092;29;20044;-73
2022/08/20 11:34:30;;;;;;;0.73;0.30;;;25.70;82.30;;;;;;4942325;29;20032;-73
2022/08/20 11:36:57;;;;;;;1.60;0.30;;;25.70;82.40;;;;;;4942424;29;20039;-72
2022/08/20 11:39:26;;;;;;;1.08;0.30;;;25.80;82.90;;;;;;4943750;29;20095;-73
2022/08/20 11:41:52;;;;;;;1.27;0.20;;;25.90;82.70;;;;;;4944305;29;20044;-71
2022/08/20 11:44:18;;;;;;;1.25;0.28;;;26.00;81.90;;;;;;4943947;29;20024;-73
2022/08/20 11:46:44;;;;;;;0.70;0.20;;;25.90;81.50;;;;;;4943685;29;20071;-71
2022/08/20 11:49:09;;;;;;;1.60;0.60;;;25.70;81.90;;;;;;4942810;29;20043;-72
2022/08/20 11:51:36;;;;;;;0.50;0.10;;;25.70;82.20;;;;;;4943616;29;20090;-71
2022/08/20 11:54:03;;;;;;;1.40;0.20;;;25.90;81.80;;;;;;4944099;29;20132;-72
2022/08/20 11:56:29;;;;;;;0.60;0.17;;;26.10;81.10;;;;;;4943817;29;20039;-71
2022/08/20 11:58:55;;;;;;;1.13;0.45;;;26.20;80.40;;;;;;4943773;29;20224;-72
2022/08/20 12:01:20;;;;;;;1.25;0.28;;;26.20;80.90;;;;;;4943591;29;20034;-72
2022/08/20 12:03:46;;;;;;;0.47;0.10;;;26.10;81.60;;;;;;4943014;29;20062;-71
2022/08/20 12:06:12;;;;;;;1.05;0.30;;;25.90;80.70;;;;;;4944106;29;20047;-71
2022/08/20 12:08:38;;;;;;;0.70;0.10;;;25.60;81.50;;;;;;4924614;29;20066;-71
2022/08/20 12:11:04;;;;;;;1.20;0.30;;;25.60;82.00;;;;;;4943773;29;20047;-70
2022/08/20 12:13:32;;;;;;;1.15;0.15;;;25.50;82.50;;;;;;4942863;29;20063;-71
2022/08/20 12:15:58;;;;;;;;;;;25.80;82.50;;;;;;4934261;29;20031;-72
2022/08/20 12:18:23;;;;;;;0.63;0.20;;;25.70;82.00;;;;;;4924525;29;19955;-72
2022/08/20 12:20:49;;;;;;;0.73;0.20;;;25.60;80.90;;;;;;4924397;29;20159;-72
2022/08/20 12:23:15;;;;;;;0.95;0.20;;;25.70;81.20;;;;;;4907781;29;20036;-71
2022/08/20 12:25:40;;;;;;;0.90;0.30;;;25.70;81.10;;;;;;4923845;29;20039;-71
2022/08/20 12:28:06;;;;;;;0.77;0.28;;;25.70;80.80;;;;;;4942748;29;20031;-70
2022/08/20 12:30:33;;;;;;;1.05;0.30;;;25.60;80.70;;;;;;4942990;29;20035;-71
2022/08/20 12:32:59;;;;;;;1.08;0.45;;;25.70;80.80;;;;;;4943259;29;20039;-71
2022/08/20 12:35:25;;;;;;;1.42;0.50;;;25.90;80.80;;;;;;4943167;29;20099;-71
2022/08/20 12:37:52;;;;;;;1.08;0.40;;;26.10;80.10;;;;;;4944089;29;20060;-72
2022/08/20 12:40:20;;;;;;;0.65;0.20;;;26.30;79.00;;;;;;4941584;29;20035;-72
2022/08/20 12:42:47;;;;;;;0.77;0.22;;;26.50;78.50;;;;;;4942679;29;20500;-71
2022/08/20 12:45:14;;;;;;;1.08;0.40;;;26.80;78.20;;;;;;4945796;29;20036;-71
2022/08/20 12:47:42;;;;;;;0.55;0.10;;;27.00;78.60;;;;;;4946075;29;20699;-72
2022/08/20 12:50:15;;;;;;;1.40;0.30;;;27.30;77.70;;;;;;4947204;29;20043;-71
2022/08/20 12:52:41;;;;;;;1.10;0.35;;;27.30;76.90;;;;;;4947204;29;20039;-71
2022/08/20 12:55:10;;;;;;;0.73;0.30;;;27.20;77.80;;;;;;4947515;29;20123;-71
2022/08/20 12:57:43;;;;;;;;;;;27.20;78.00;;;;;;4947144;29;20097;-72
2022/08/20 13:00:11;;;;;;;0.98;0.40;;;27.10;78.60;;;;;;4947592;29;19907;-78
2022/08/20 13:02:37;;;;;;;1.73;0.40;;;27.00;79.20;;;;;;4947044;29;20059;-78
2022/08/20 13:05:05;;;;;;;2.20;0.60;;;26.90;79.50;;;;;;4946988;29;20356;-76
2022/08/20 13:07:32;;;;;;;1.70;0.70;;;26.40;81.90;;;;;;4946968;29;20142;-77
2022/08/20 13:10:01;;;;;;;2.25;0.90;;;25.70;84.70;;;;;;4946390;29;20035;-79
2022/08/20 13:12:44;;;;;;;2.38;0.80;;;25.30;86.60;;;;;;4946921;29;20031;-76
2022/08/20 13:15:10;;;;;;;1.98;0.90;;;25.10;88.40;;;;;;4912446;29;20089;-72
2022/08/20 13:17:36;;;;;;;1.75;0.50;;;25.00;90.00;;;;;;4929482;29;20051;-72
2022/08/20 13:20:04;;;;;;;1.98;0.70;;;25.00;89.10;;;;;;4946688;29;20023;-72
2022/08/20 13:22:32;;;;;;;2.47;1.13;;;25.00;88.30;;;;;;4946435;29;20181;-72
2022/08/20 13:25:00;;;;;;;;;;;24.90;88.40;;;;;;4947088;29;20083;-71
2022/08/20 13:27:45;;;;;;;2.95;1.25;;;24.90;89.00;;;;;;4929544;29;19925;-72
2022/08/20 13:30:27;;;;;;;1.80;0.82;;;25.30;88.20;;;;;;4946468;29;20210;-71
2022/08/20 13:32:56;;;;;;;2.30;0.70;;;25.70;86.70;;;;;;4940880;29;20051;-72
2022/08/20 13:35:25;;;;;;;1.90;0.60;;;26.00;86.00;;;;;;4944102;29;20031;-71
2022/08/20 13:37:51;;;;;;;2.08;0.80;;;26.30;85.90;;;;;;4943640;29;20031;-72
2022/08/20 13:40:29;;;;;;;1.83;0.80;;;27.50;83.50;;;;;;4942671;29;20140;-72
2022/08/20 13:43:13;;;;;;;2.65;0.70;;;28.40;79.10;;;;;;4909618;29;20042;-72
2022/08/20 13:46:31;;;;;;;1.50;0.50;;;28.80;77.50;;;;;;4925576;29;20047;-73
2022/08/20 13:48:57;;;;;;;1.85;0.57;;;28.50;77.00;;;;;;4925644;29;20136;-72
2022/08/20 13:51:55;;;;;;;1.50;0.60;;;28.30;76.80;;;;;;4935133;29;20079;-72
2022/08/20 13:54:23;;;;;;;;;;;29.70;75.50;;;;;;4912506;29;20092;-73
2022/08/20 13:57:08;;;;;;;4.85;2.85;;;30.80;72.30;;;;;;4943546;29;19906;-72
2022/08/20 13:59:58;;;;;;;2.65;1.00;;;31.60;70.50;;;;;;4926677;29;20043;-73
2022/08/20 14:02:34;;;;;;;2.22;0.60;;;32.70;67.50;;;;;;4924981;29;20129;-73
2022/08/20 14:05:03;;;;;;;1.17;0.30;;;34.10;64.40;;;;;;4925696;29;20067;-72
2022/08/20 14:07:32;;;;;;;0.82;0.20;;;32.30;65.30;;;;;;4925007;29;20059;-72
2022/08/20 14:10:30;;;;;;;1.52;0.35;;;30.70;69.10;;;;;;4926906;29;20031;-72
2022/08/20 14:12:56;;;;;;;2.33;0.47;;;29.30;73.00;;;;;;4921292;29;20067;-72
2022/08/20 14:15:47;;;;;;;1.50;0.40;;;29.00;74.20;;;;;;4926109;29;20329;-71
2022/08/20 14:18:22;;;;;;;1.42;0.40;;;29.70;73.80;;;;;;4877171;29;20325;-72
2022/08/20 14:21:02;;;;;;;2.85;0.60;;;32.10;67.90;;;;;;4925496;29;20067;-72
2022/08/20 14:23:42;;;;;;;1.45;0.50;;;31.90;67.40;;;;;;4924157;29;20103;-72
2022/08/20 14:26:14;;;;;;;1.55;0.50;;;31.10;68.50;;;;;;4925277;29;20036;-72
2022/08/20 14:28:40;;;;;;;1.10;0.32;;;30.20;70.80;;;;;;4924572;29;20047;-71
2022/08/20 14:34:05;;;;;;;;;;;;;;;;;;;;;
2022/08/20 14:36:40;;;;;;;0.80;0.32;;;34.50;63.80;;;;;;4924918;29;20050;-72
2022/08/20 14:39:06;;;;;;;1.27;0.40;;;37.00;59.40;;;;;;4924127;29;20039;-73
2022/08/20 14:41:41;;;;;;;1.05;0.30;;;38.60;57.50;;;;;;4925398;29;20062;-74
2022/08/20 14:44:13;;;;;;;0.70;0.30;;;39.80;55.10;;;;;;4923822;29;20047;-73
2022/08/20 14:46:54;;;;;;;2.60;0.52;;;36.80;57.00;;;;;;4923823;29;20052;-73
2022/08/20 14:49:26;;;;;;;3.55;0.50;;;34.90;60.20;;;;;;4921642;29;20075;-73
2022/08/20 14:51:54;;;;;;;2.75;0.65;;;35.10;61.60;;;;;;4923049;29;20305;-73
2022/08/20 14:54:44;;;;;;;0.80;0.20;;;37.10;58.40;;;;;;4925149;29;20063;-72
2022/08/20 14:57:17;;;;;;;1.80;0.40;;;38.60;56.10;;;;;;4884537;29;20053;-72
2022/08/20 15:00:23;;;;;;;1.48;0.50;;;39.10;55.40;;;;;;4920671;29;20071;-72
2022/08/20 15:02:52;;;;;;;2.15;0.50;;;39.60;54.90;;;;;;4906828;29;20335;-72
2022/08/20 15:06:01;;;;;;;;;;;;;;;;;;;;;
2022/08/20 15:08:40;;;;;;;1.05;0.50;;;40.60;53.90;;;;;;4925502;29;20040;-74
2022/08/20 15:11:19;;;;;;;1.17;0.45;;;41.00;53.50;;;;;;4907920;29;20376;-72
2022/08/20 15:14:45;;;;;;;1.45;0.50;;;38.30;55.80;;;;;;4926001;29;20047;-72
2022/08/20 15:17:52;;;;;;;0.55;0.20;;;36.40;58.50;;;;;;4908279;29;20036;-71
2022/08/20 15:20:33;;;;;;;1.38;0.30;;;36.80;58.10;;;;;;4910390;29;20043;-71
2022/08/20 15:23:09;;;;;;;0.68;0.22;;;36.70;58.10;;;;;;4924965;29;20024;-72
2022/08/20 15:29:02;;;;;;;1.20;0.40;;;38.00;57.00;;;;;;4886406;29;20169;-72
2022/08/20 15:31:49;;;;;;;1.00;0.30;;;38.30;56.40;;;;;;4886903;29;20052;-73
2022/08/20 15:34:17;;;;;;;1.20;0.40;;;38.50;56.80;;;;;;4885802;29;20037;-73
2022/08/20 15:36:43;;;;;;;1.40;0.50;;;37.10;57.70;;;;;;4886175;29;20334;-73
2022/08/20 15:39:19;;;;;;;0.90;0.30;;;36.90;58.80;;;;;;4871360;29;20049;-73
2022/08/20 15:41:45;;;;;;;1.65;0.30;;;37.80;58.10;;;;;;4885405;29;20528;-74
2022/08/20 15:44:42;;;;;;;0.80;0.38;;;38.60;56.90;;;;;;4886338;29;20033;-73
2022/08/20 15:47:29;;;;;;;0.80;0.40;;;39.10;56.00;;;;;;4864493;29;20265;-74
2022/08/20 15:50:23;;;;;;;1.00;0.30;;;40.10;55.20;;;;;;4868194;29;20033;-73
2022/08/20 15:52:57;;;;;;;1.92;0.50;;;40.20;54.90;;;;;;4876868;29;20675;-77
2022/08/20 15:55:50;;;;;;;1.20;0.30;;;40.30;55.20;;;;;;4886676;29;20033;-74
2022/08/20 15:58:26;;;;;;;1.13;0.50;;;39.90;55.70;;;;;;4886996;29;20057;-73
2022/08/20 16:01:01;;;;;;;2.35;0.50;;;38.10;57.10;;;;;;4886704;29;20093;-73
2022/08/20 16:07:36;;;;;;;0.77;0.30;;;38.40;57.40;;;;;;4907387;29;20038;-73
2022/08/20 16:17:31;;;;;;;2.13;0.65;;;34.60;63.40;;;;;;4848878;29;20072;-73
2022/08/20 16:20:21;;;;;;;1.77;0.50;;;33.50;65.70;;;;;;4815312;29;20568;-73
2022/08/20 16:23:00;;;;;;;1.45;0.60;;;32.80;67.00;;;;;;4849474;29;20038;-73
2022/08/20 16:25:40;;;;;;;1.20;0.50;;;31.90;69.30;;;;;;4849222;29;20034;-73
2022/08/20 16:31:24;;;;;;;1.77;0.82;;;31.30;71.70;;;;;;4849440;29;20087;-73
2022/08/20 16:37:49;;;;;;;1.60;0.50;;;32.10;69.60;;;;;;4845035;29;20081;-73
2022/08/20 16:43:55;;;;;;;;;;;36.70;61.10;;;;;;4811703;29;20039;-73
2022/08/20 16:46:36;;;;;;;1.15;0.45;;;39.00;57.50;;;;;;4812172;29;19909;-73
2022/08/20 16:49:12;;;;;;;1.58;0.50;;;39.70;56.30;;;;;;4796972;29;20328;-72
2022/08/20 16:52:11;;;;;;;1.95;0.77;;;40.60;55.20;;;;;;4820791;29;20087;-72
2022/08/20 16:55:01;;;;;;;2.17;0.50;;;39.80;54.70;;;;;;4830377;29;20250;-72
2022/08/20 16:57:40;;;;;;;1.20;0.40;;;39.00;56.00;;;;;;4815512;29;20113;-72
2022/08/20 17:08:17;;;;;;;2.47;0.75;;;34.80;61.20;;;;;;4794915;30;20276;-73
2022/08/20 17:11:27;;;;;;;;;;;;;;;;;;;;;
2022/08/20 17:14:18;;;;;;;2.95;0.95;;;30.80;70.70;;;;;;4793880;30;20054;-71
2022/08/20 17:17:25;;;;;;;1.58;0.70;;;29.50;73.50;;;;;;4812601;29;20168;-73
2022/08/20 17:20:01;;;;;;;2.50;0.90;;;28.80;75.50;;;;;;4871030;29;20112;-71
2022/08/20 17:22:46;;;;;;;1.73;0.95;;;28.10;77.30;;;;;;4887678;29;20033;-71
2022/08/20 17:25:54;;;;;;;1.85;0.85;;;27.80;78.40;;;;;;4904174;29;20048;-73
2022/08/20 17:28:25;;;;;;;1.92;0.82;;;27.40;79.00;;;;;;4904297;29;20036;-72
2022/08/20 17:30:57;;;;;;;1.95;0.90;;;27.20;80.10;;;;;;4904613;29;20046;-72
2022/08/20 17:33:43;;;;;;;2.10;1.08;;;27.00;79.80;;;;;;4892286;29;20044;-73
2022/08/20 17:36:33;;;;;;;1.75;0.90;;;26.90;80.40;;;;;;4907858;29;20051;-73
2022/08/20 17:39:14;;;;;;;2.22;1.00;;;26.80;80.30;;;;;;4882241;29;20088;-73
2022/08/20 17:41:47;;;;;;;1.90;0.75;;;26.70;80.00;;;;;;4927590;29;20069;-73
2022/08/20 17:44:32;;;;;;;2.10;0.90;;;26.50;81.10;;;;;;4911815;29;20028;-73
2022/08/20 17:47:11;;;;;;;1.27;0.73;;;26.50;81.30;;;;;;4870022;29;20049;-73
2022/08/20 17:49:54;;;;;;;2.28;1.10;;;26.40;81.20;;;;;;4909528;29;20036;-72
2022/08/20 17:52:35;;;;;;;1.77;0.80;;;26.30;80.20;;;;;;4908837;29;20243;-73
2022/08/20 17:55:20;;;;;;;1.85;0.90;;;26.20;81.10;;;;;;4917161;29;20047;-73
2022/08/20 17:57:59;;;;;;;2.90;1.38;;;26.00;81.40;;;;;;4907751;29;20044;-72
2022/08/20 18:00:29;;;;;;;2.38;1.13;;;25.90;82.90;;;;;;4907981;29;20033;-73
2022/08/20 18:03:14;;;;;;;2.83;1.20;;;25.70;83.20;;;;;;4907008;29;20036;-72
2022/08/20 18:05:52;;;;;;;2.03;0.70;;;25.50;82.50;;;;;;4916617;29;20028;-73
2022/08/20 18:08:22;;;;;;;2.70;1.00;;;25.40;67.70;;;;;;4911528;29;20254;-73
2022/08/20 18:11:12;;;;;;;3.55;1.00;;;25.30;67.00;;;;;;4910861;29;20075;-72
2022/08/20 18:13:47;;;;;;;2.35;0.80;;;25.20;66.60;;;;;;4926465;29;20258;-72
2022/08/20 18:16:27;;;;;;;4.85;1.20;;;25.10;68.90;;;;;;4911445;29;20032;-72
2022/08/20 18:19:38;;;;;;;3.67;1.00;;;25.10;68.40;;;;;;4926650;29;20330;-72
2022/08/20 18:22:15;;;;;;;3.25;1.35;;;24.90;65.60;;;;;;4910589;29;20317;-72
2022/08/20 18:24:52;;;;;;;2.08;0.82;;;24.80;65.20;;;;;;4925252;29;20046;-72
2022/08/20 18:27:26;;;;;;;4.38;1.30;;;24.60;65.60;;;;;;4908257;29;20032;-73
2022/08/20 18:29:59;;;;;;;2.25;0.90;;;24.50;65.70;;;;;;4917455;29;20058;-72
2022/08/20 18:32:36;;;;;;;2.80;1.05;;;24.40;66.70;;;;;;4910855;29;20036;-71
2022/08/20 18:35:29;;;;;;;3.15;1.00;;;24.30;66.10;;;;;;4910217;29;20048;-72
2022/08/20 18:37:56;;;;;;;2.63;1.23;;;24.20;68.00;;;;;;4906098;29;20112;-74
2022/08/20 18:40:32;;;;;;;3.80;1.25;;;24.10;67.20;;;;;;4910607;29;20024;-72
2022/08/20 18:43:25;;;;;;;2.63;1.23;;;24.00;67.10;;;;;;4932530;29;20091;-74
2022/08/20 18:46:24;;;;;;;4.65;1.17;;;23.90;67.90;;;;;;4909836;29;20035;-73
2022/08/20 18:49:17;;;;;;;2.60;0.93;;;23.80;67.40;;;;;;4899998;29;20260;-72
2022/08/20 18:51:49;;;;;;;3.08;1.40;;;23.60;67.80;;;;;;4910621;29;20032;-73
2022/08/20 18:54:31;;;;;;;3.42;1.73;;;23.60;68.60;;;;;;4910671;29;20207;-72
2022/08/20 18:57:24;;;;;;;4.18;1.65;;;23.60;67.60;;;;;;4926711;29;20298;-72
2022/08/20 19:00:18;;;;;;;3.83;1.70;;;23.40;68.40;;;;;;4924698;29;20032;-72
2022/08/20 19:03:29;;;;;;;3.55;1.45;;;23.40;69.80;;;;;;4943041;29;20131;-71